GIB weather

Gibraltar Airport
Gibraltar, Gibraltar

Public forecast

Using degrees Celsius for public forecast. Weather courtesy of forecast.io.

Current aviation weather report (METAR) for Gibraltar Airport

Retrieved 2019/12/10 18:20 UTC (11 minutes ago):

LXGB 101820Z 22009KT CAVOK 16/08 Q1025 NOSIG

Aviation forecast (TAF) for Gibraltar Airport

Forecast is more than 12 hours old.

Retrieved 2019/05/20 18:00 UTC (7 months ago):

TAF TAF LXGB 201634Z 2018/2222 26012KT CAVOK